createdAt,value
2017-01-13T00:00:48.790Z,73.44
2017-01-13T00:01:48.802Z,73.72
2017-01-13T00:02:48.811Z,73.82
2017-01-13T00:03:48.828Z,73.92
2017-01-13T00:04:48.837Z,73.63
2017-01-13T00:05:48.850Z,73.72
2017-01-13T00:06:48.861Z,73.82
2017-01-13T00:07:48.874Z,73.72
2017-01-13T00:08:48.884Z,74.01
2017-01-13T00:09:48.895Z,73.82
2017-01-13T00:10:48.910Z,73.92
2017-01-13T00:11:48.921Z,74.01
2017-01-13T00:12:48.933Z,73.72
2017-01-13T00:13:48.944Z,74.2
2017-01-13T00:14:48.956Z,73.92
2017-01-13T00:15:48.971Z,73.82
2017-01-13T00:16:48.987Z,74.11
2017-01-13T00:17:48.995Z,74.11
2017-01-13T00:18:49.003Z,73.92
2017-01-13T00:19:49.015Z,74.11
2017-01-13T00:20:49.029Z,73.82
2017-01-13T00:21:49.037Z,74.11
2017-01-13T00:22:49.053Z,73.92
2017-01-13T00:23:49.067Z,74.39
2017-01-13T00:24:49.077Z,74.2
2017-01-13T00:25:49.093Z,74.3
2017-01-13T00:26:49.105Z,74.39
2017-01-13T00:27:49.113Z,74.11
2017-01-13T00:28:49.129Z,74.11
2017-01-13T00:29:49.141Z,73.72
2017-01-13T00:30:49.150Z,74.11
2017-01-13T00:31:49.165Z,74.3
2017-01-13T00:32:49.173Z,74.11
2017-01-13T00:33:49.241Z,74.11
2017-01-13T00:34:49.198Z,74.2
2017-01-13T00:35:49.214Z,74.39
2017-01-13T00:36:49.224Z,73.92
2017-01-13T00:37:49.233Z,74.01
2017-01-13T00:38:49.244Z,74.49
2017-01-13T00:39:49.257Z,74.01
2017-01-13T00:40:49.272Z,74.01
2017-01-13T00:41:49.281Z,74.3
2017-01-13T00:42:49.293Z,74.01
2017-01-13T00:43:49.357Z,74.11
2017-01-13T00:44:49.320Z,74.01
2017-01-13T00:45:49.332Z,74.68
2017-01-13T00:46:49.338Z,74.58
2017-01-13T00:47:49.353Z,74.58
2017-01-13T00:48:49.364Z,74.49
2017-01-13T00:49:49.376Z,74.11
2017-01-13T00:50:49.388Z,74.11
2017-01-13T00:51:49.399Z,74.11
2017-01-13T00:52:49.416Z,74.3
2017-01-13T00:53:49.426Z,74.11
2017-01-13T00:54:49.436Z,74.39
2017-01-13T00:55:49.448Z,74.11
2017-01-13T00:56:49.459Z,74.01
2017-01-13T00:57:49.477Z,74.11
2017-01-13T00:58:49.488Z,74.58
2017-01-13T00:59:49.495Z,74.58
2017-01-13T01:00:49.509Z,74.58
2017-01-13T01:01:49.518Z,74.58
2017-01-13T01:02:49.534Z,74.77
2017-01-13T01:03:49.543Z,74.58
2017-01-13T01:04:49.557Z,74.3
2017-01-13T01:05:49.569Z,74.58
2017-01-13T01:06:49.579Z,74.58
2017-01-13T01:07:49.595Z,74.39
2017-01-13T01:08:49.606Z,74.3
2017-01-13T01:09:49.619Z,74.11
2017-01-13T01:10:49.624Z,73.72
2017-01-13T01:11:49.640Z,74.49
2017-01-13T01:12:49.655Z,74.2
2017-01-13T01:13:49.662Z,74.11
2017-01-13T01:14:49.679Z,74.3
2017-01-13T01:15:49.689Z,74.58
2017-01-13T01:16:49.696Z,74.01
2017-01-13T01:17:49.710Z,74.11
2017-01-13T01:18:49.723Z,74.49
2017-01-13T01:19:49.736Z,74.49
2017-01-13T01:20:49.746Z,74.01
2017-01-13T01:21:49.761Z,73.92
2017-01-13T01:22:49.804Z,74.49
2017-01-13T01:23:49.979Z,74.58
2017-01-13T01:24:49.796Z,74.39
2017-01-13T01:25:49.802Z,74.49
2017-01-13T01:26:49.818Z,74.87
2017-01-13T01:27:49.834Z,74.87
2017-01-13T01:28:49.841Z,74.49
2017-01-13T01:29:49.853Z,74.3
2017-01-13T01:30:49.865Z,74.58
2017-01-13T01:31:49.876Z,74.39
2017-01-13T01:32:49.917Z,74.3
2017-01-13T01:33:49.900Z,74.77
2017-01-13T01:34:49.913Z,74.58
2017-01-13T01:35:49.923Z,74.77
2017-01-13T01:36:49.937Z,74.3
2017-01-13T01:37:49.951Z,74.49
2017-01-13T01:38:49.961Z,74.58
2017-01-13T01:39:49.971Z,74.68
2017-01-13T01:40:49.985Z,74.68
2017-01-13T01:41:49.995Z,74.77
2017-01-13T01:42:50.010Z,74.77
2017-01-13T01:43:50.016Z,74.68
2017-01-13T01:44:50.030Z,74.87
2017-01-13T01:45:50.044Z,74.58
2017-01-13T01:46:50.055Z,74.58
2017-01-13T01:47:50.064Z,74.58
2017-01-13T01:48:50.081Z,74.39
2017-01-13T01:49:50.092Z,74.49
2017-01-13T01:50:50.101Z,74.39
2017-01-13T01:51:50.114Z,74.68
2017-01-13T01:52:50.523Z,74.49
2017-01-13T01:53:50.139Z,74.58
2017-01-13T01:54:50.149Z,74.58
2017-01-13T01:55:50.162Z,74.3
2017-01-13T01:56:50.175Z,74.39
2017-01-13T01:57:50.185Z,74.39
2017-01-13T01:58:50.196Z,74.58
2017-01-13T01:59:50.211Z,74.2
2017-01-13T02:00:50.228Z,74.77
2017-01-13T02:01:50.233Z,74.3
2017-01-13T02:02:50.253Z,74.77
2017-01-13T02:03:50.257Z,74.58
2017-01-13T02:04:50.268Z,74.77
2017-01-13T02:05:50.281Z,74.2
2017-01-13T02:06:50.295Z,74.87
2017-01-13T02:07:50.307Z,74.58
2017-01-13T02:08:50.318Z,74.68
2017-01-13T02:09:50.328Z,74.68
2017-01-13T02:10:50.339Z,74.58
2017-01-13T02:11:50.354Z,74.77
2017-01-13T02:12:50.362Z,74.49
2017-01-13T02:13:50.381Z,74.87
2017-01-13T02:14:50.449Z,74.77
2017-01-13T02:15:50.400Z,74.68
2017-01-13T02:16:50.413Z,74.49
2017-01-13T02:17:50.424Z,74.87
2017-01-13T02:18:50.438Z,75.15
2017-01-13T02:19:50.481Z,74.96
2017-01-13T02:20:50.461Z,74.68
2017-01-13T02:21:50.471Z,74.68
2017-01-13T02:22:50.485Z,74.58
2017-01-13T02:23:50.494Z,74.87
2017-01-13T02:24:50.508Z,74.68
2017-01-13T02:25:50.554Z,74.87
2017-01-13T02:26:50.532Z,75.34
2017-01-13T02:27:50.540Z,75.15
2017-01-13T02:28:50.953Z,74.68
2017-01-13T02:29:50.565Z,74.68
2017-01-13T02:30:50.582Z,74.58
2017-01-13T02:31:50.591Z,74.77
2017-01-13T02:32:50.601Z,74.87
2017-01-13T02:33:50.615Z,75.15
2017-01-13T02:34:50.625Z,75.15
2017-01-13T02:35:50.634Z,74.87
2017-01-13T02:36:50.653Z,75.34
2017-01-13T02:37:50.756Z,75.34
2017-01-13T02:38:50.673Z,75.05
2017-01-13T02:39:50.687Z,75.05
2017-01-13T02:40:50.696Z,75.34
2017-01-13T02:41:50.712Z,75.15
2017-01-13T02:42:50.719Z,75.15
2017-01-13T02:43:50.732Z,75.24
2017-01-13T02:44:50.794Z,75.15
2017-01-13T02:45:50.753Z,74.96
2017-01-13T02:46:50.767Z,75.15
2017-01-13T02:47:50.777Z,75.15
2017-01-13T02:48:50.791Z,75.05
2017-01-13T02:49:50.828Z,75.24
2017-01-13T02:50:50.825Z,75.05
2017-01-13T02:51:50.949Z,75.43
2017-01-13T02:52:50.873Z,75.43
2017-01-13T02:53:50.851Z,75.24
2017-01-13T02:54:50.862Z,75.05
2017-01-13T02:55:50.873Z,75.05
2017-01-13T02:56:50.885Z,75.34
2017-01-13T02:57:50.897Z,75.43
2017-01-13T02:58:50.912Z,75.05
2017-01-13T02:59:50.920Z,75.15
2017-01-13T03:00:50.931Z,75.43
2017-01-13T03:01:50.945Z,75.72
2017-01-13T03:02:50.957Z,74.96
2017-01-13T03:03:50.973Z,75.62
2017-01-13T03:04:50.984Z,75.43
2017-01-13T03:05:50.990Z,75.53
2017-01-13T03:06:51.002Z,75.43
2017-01-13T03:07:51.015Z,75.43
2017-01-13T03:08:51.026Z,75.43
2017-01-13T03:09:51.035Z,75.43
2017-01-13T03:10:51.050Z,75.53
2017-01-13T03:11:51.063Z,75.34
2017-01-13T03:12:51.072Z,75.72
2017-01-13T03:13:51.084Z,75.72
2017-01-13T03:14:51.098Z,75.72
2017-01-13T03:15:51.109Z,75.53
2017-01-13T03:16:51.130Z,75.15
2017-01-13T03:17:51.133Z,75.34
2017-01-13T03:18:51.144Z,75.62
2017-01-13T03:19:51.157Z,75.81
2017-01-13T03:20:51.167Z,76.2
2017-01-13T03:21:51.179Z,75.53
2017-01-13T03:22:51.190Z,75.87
2017-01-13T03:23:51.204Z,75.49
2017-01-13T03:24:51.213Z,75.72
2017-01-13T03:25:51.225Z,75.91
2017-01-13T03:26:51.238Z,75.91
2017-01-13T03:27:51.252Z,75.43
2017-01-13T03:28:51.289Z,76.1
2017-01-13T03:29:51.273Z,76.01
2017-01-13T03:30:51.286Z,75.81
2017-01-13T03:31:51.298Z,75.91
2017-01-13T03:32:51.308Z,75.87
2017-01-13T03:33:51.317Z,75.72
2017-01-13T03:34:51.330Z,75.72
2017-01-13T03:35:51.347Z,76.01
2017-01-13T03:36:51.360Z,76.29
2017-01-13T03:37:51.365Z,76.29
2017-01-13T03:38:51.383Z,76.57
2017-01-13T03:39:51.392Z,76.48
2017-01-13T03:40:51.401Z,76.67
2017-01-13T03:41:51.412Z,76.86
2017-01-13T03:42:51.425Z,76.29
2017-01-13T03:43:51.439Z,76.39
2017-01-13T03:44:51.467Z,76.95
2017-01-13T03:45:51.461Z,76.2
2017-01-13T03:46:51.472Z,76.39
2017-01-13T03:47:51.486Z,76.29
2017-01-13T03:48:51.497Z,75.81
2017-01-13T03:49:51.507Z,76.76
2017-01-13T03:50:51.518Z,76.29
2017-01-13T03:51:51.542Z,76.2
2017-01-13T03:52:51.541Z,76.29
2017-01-13T03:53:51.557Z,76.29
2017-01-13T03:54:51.566Z,76.76
2017-01-13T03:55:51.578Z,76.39
2017-01-13T03:56:51.586Z,76.48
2017-01-13T03:57:51.603Z,76.39
2017-01-13T03:58:51.612Z,76.48
2017-01-13T03:59:51.622Z,76.48
2017-01-13T04:00:51.640Z,76.76
2017-01-13T04:01:51.645Z,76.57
2017-01-13T04:02:51.657Z,76.48
2017-01-13T04:03:51.671Z,76.57
2017-01-13T04:04:51.682Z,76.57
2017-01-13T04:05:51.693Z,76.57
2017-01-13T04:06:51.702Z,76.57
2017-01-13T04:07:51.716Z,76.48
2017-01-13T04:08:51.729Z,76.48
2017-01-13T04:09:51.741Z,76.67
2017-01-13T04:10:51.752Z,76.39
2017-01-13T04:11:51.761Z,76.29
2017-01-13T04:12:51.777Z,76.76
2017-01-13T04:13:51.787Z,76.57
2017-01-13T04:14:51.799Z,76.67
2017-01-13T04:15:51.810Z,76.67
2017-01-13T04:16:51.833Z,76.67
2017-01-13T04:17:51.835Z,76.57
2017-01-13T04:18:51.844Z,76.57
2017-01-13T04:19:51.858Z,76.48
2017-01-13T04:20:51.867Z,76.57
2017-01-13T04:21:51.892Z,76.57
2017-01-13T04:22:51.893Z,76.57
2017-01-13T04:23:51.907Z,76.57
2017-01-13T04:24:51.916Z,76.57
2017-01-13T04:25:51.926Z,76.48
2017-01-13T04:26:51.941Z,76.48
2017-01-13T04:27:51.952Z,76.67
2017-01-13T04:28:51.963Z,76.67
2017-01-13T04:29:51.974Z,76.48
2017-01-13T04:30:51.986Z,76.57
2017-01-13T04:31:52.001Z,76.86
2017-01-13T04:32:52.008Z,76.48
2017-01-13T04:33:52.020Z,76.48
2017-01-13T04:34:52.032Z,76.57
2017-01-13T04:35:52.045Z,76.57
2017-01-13T04:36:52.056Z,76.48
2017-01-13T04:37:52.093Z,76.57
2017-01-13T04:38:52.085Z,76.57
2017-01-13T04:39:52.091Z,76.39
2017-01-13T04:40:52.132Z,76.57
2017-01-13T04:41:52.116Z,76.29
2017-01-13T04:42:52.125Z,76.39
2017-01-13T04:43:52.137Z,76.39
2017-01-13T04:44:52.153Z,76.48
2017-01-13T04:45:52.162Z,76.67
2017-01-13T04:46:52.174Z,76.29
2017-01-13T04:48:52.198Z,76.57
2017-01-13T04:49:52.208Z,76.57
2017-01-13T04:50:52.219Z,76.67
2017-01-13T04:51:52.233Z,76.48
2017-01-13T04:52:52.245Z,76.29
2017-01-13T04:53:52.255Z,76.57
2017-01-13T04:54:52.265Z,76.29
2017-01-13T04:55:52.280Z,76.2
2017-01-13T04:56:52.293Z,76.2
2017-01-13T04:57:52.301Z,76.1
2017-01-13T04:58:52.316Z,76.29
2017-01-13T04:59:52.322Z,76.29
2017-01-13T05:00:52.340Z,76.39
2017-01-13T05:01:52.348Z,76.2
2017-01-13T05:02:52.360Z,75.81
2017-01-13T05:03:52.371Z,75.72
2017-01-13T05:04:52.382Z,76.1
2017-01-13T05:05:52.395Z,75.81
2017-01-13T05:06:52.406Z,75.72
2017-01-13T05:07:52.419Z,75.15
2017-01-13T05:08:52.428Z,75.15
2017-01-13T05:09:52.439Z,75.15
2017-01-13T05:10:52.484Z,75.15
2017-01-13T05:11:52.466Z,75.24
2017-01-13T05:12:52.477Z,75.43
2017-01-13T05:13:52.487Z,75.05
2017-01-13T05:14:52.501Z,75.05
2017-01-13T05:15:52.512Z,75.05
2017-01-13T05:16:52.524Z,75.05
2017-01-13T05:17:52.533Z,74.96
2017-01-13T05:18:52.549Z,75.15
2017-01-13T05:19:52.556Z,74.87
2017-01-13T05:20:52.569Z,75.24
2017-01-13T05:21:52.583Z,75.15
2017-01-13T05:22:52.592Z,75.15
2017-01-13T05:23:52.604Z,74.87
2017-01-13T05:24:52.614Z,75.15
2017-01-13T05:25:52.643Z,74.87
2017-01-13T05:26:52.642Z,74.68
2017-01-13T05:27:52.652Z,74.3
2017-01-13T05:28:52.671Z,74.68
2017-01-13T05:29:52.676Z,74.49
2017-01-13T05:30:52.688Z,74.58
2017-01-13T05:31:52.699Z,74.3
2017-01-13T05:32:52.708Z,74.39
2017-01-13T05:33:52.721Z,74.68
2017-01-13T05:34:52.737Z,74.3
2017-01-13T05:35:52.750Z,74.3
2017-01-13T05:36:52.758Z,74.01
2017-01-13T05:37:52.768Z,74.39
2017-01-13T05:38:52.781Z,74.2
2017-01-13T05:39:52.796Z,73.92
2017-01-13T05:40:52.801Z,73.25
2017-01-13T05:41:52.818Z,73.44
2017-01-13T05:42:52.827Z,74.01
2017-01-13T05:43:52.841Z,73.72
2017-01-13T05:44:52.851Z,73.35
2017-01-13T05:45:52.884Z,74.01
2017-01-13T05:46:52.873Z,73.92
2017-01-13T05:47:52.884Z,73.72
2017-01-13T05:48:52.907Z,73.63
2017-01-13T05:49:52.916Z,73.72
2017-01-13T05:50:52.921Z,73.82
2017-01-13T05:51:52.931Z,74.01
2017-01-13T05:52:52.945Z,73.63
2017-01-13T05:53:52.959Z,73.44
2017-01-13T05:54:52.969Z,73.25
2017-01-13T05:55:52.979Z,73.07
2017-01-13T05:56:52.994Z,73.16
2017-01-13T05:57:53.000Z,73.35
2017-01-13T05:58:53.017Z,73.44
2017-01-13T05:59:53.026Z,72.88
2017-01-13T06:00:53.037Z,72.78
2017-01-13T06:01:53.048Z,72.97
2017-01-13T06:02:53.061Z,72.59
2017-01-13T06:03:53.073Z,72.59
2017-01-13T06:04:53.084Z,72.68
2017-01-13T06:05:53.095Z,72.68
2017-01-13T06:06:53.108Z,72.68
2017-01-13T06:07:53.126Z,72.78
2017-01-13T06:08:53.133Z,72.97
2017-01-13T06:09:53.150Z,72.68
2017-01-13T06:10:53.155Z,72.78
2017-01-13T06:11:53.172Z,72.59
2017-01-13T06:12:53.179Z,72.49
2017-01-13T06:13:53.190Z,73.25
2017-01-13T06:14:53.201Z,73.25
2017-01-13T06:15:53.219Z,72.68
2017-01-13T06:16:53.229Z,72.88
2017-01-13T06:17:53.237Z,72.88
2017-01-13T06:18:53.249Z,72.78
2017-01-13T06:19:53.259Z,72.78
2017-01-13T06:20:53.274Z,72.59
2017-01-13T06:21:53.282Z,72.97
2017-01-13T06:22:53.297Z,72.21
2017-01-13T06:23:53.309Z,72.21
2017-01-13T06:24:53.322Z,72.4
2017-01-13T06:25:53.333Z,72.49
2017-01-13T06:26:53.341Z,72.21
2017-01-13T06:27:53.357Z,72.4
2017-01-13T06:28:53.365Z,72.21
2017-01-13T06:29:53.378Z,72.11
2017-01-13T06:30:53.391Z,72.21
2017-01-13T06:31:53.406Z,72.4
2017-01-13T06:32:53.413Z,72.21
2017-01-13T06:33:53.430Z,72.21
2017-01-13T06:34:53.434Z,72.21
2017-01-13T06:35:53.451Z,72.49
2017-01-13T06:36:53.459Z,72.4
2017-01-13T06:37:53.473Z,72.11
2017-01-13T06:38:53.485Z,72.88
2017-01-13T06:39:53.493Z,72.11
2017-01-13T06:40:53.504Z,72.21
2017-01-13T06:41:53.518Z,72.59
2017-01-13T06:42:53.531Z,72.4
2017-01-13T06:43:53.539Z,72.4
2017-01-13T06:44:53.557Z,72.59
2017-01-13T06:45:53.565Z,72.4
2017-01-13T06:46:53.575Z,72.21
2017-01-13T06:47:53.588Z,72.4
2017-01-13T06:48:53.601Z,72.49
2017-01-13T06:49:53.617Z,71.73
2017-01-13T06:50:53.620Z,71.92
2017-01-13T06:51:53.636Z,71.73
2017-01-13T06:52:53.647Z,71.73
2017-01-13T06:53:53.669Z,71.83
2017-01-13T06:54:53.673Z,71.73
2017-01-13T06:55:53.683Z,71.64
2017-01-13T06:56:53.692Z,72.3
2017-01-13T06:57:53.706Z,72.49
2017-01-13T06:58:53.718Z,72.59
2017-01-13T06:59:53.728Z,72.49
2017-01-13T07:00:53.743Z,72.21
2017-01-13T07:01:53.754Z,72.21
2017-01-13T07:02:53.763Z,72.11
2017-01-13T07:03:53.777Z,72.59
2017-01-13T07:04:53.787Z,72.3
2017-01-13T07:05:53.798Z,72.49
2017-01-13T07:06:53.810Z,72.4
2017-01-13T07:07:53.832Z,72.11
2017-01-13T07:08:53.834Z,72.59
2017-01-13T07:09:53.844Z,72.88
2017-01-13T07:10:53.861Z,72.49
2017-01-13T07:11:53.871Z,72.59
2017-01-13T07:12:53.880Z,72.78
2017-01-13T07:13:53.893Z,72.59
2017-01-13T07:14:53.908Z,72.59
2017-01-13T07:15:53.915Z,72.88
2017-01-13T07:16:53.934Z,72.68
2017-01-13T07:17:53.937Z,72.68
2017-01-13T07:18:53.949Z,72.68
2017-01-13T07:19:53.962Z,72.49
2017-01-13T07:20:53.974Z,72.59
2017-01-13T07:21:53.983Z,72.59
2017-01-13T07:22:54.008Z,72.78
2017-01-13T07:23:54.012Z,72.78
2017-01-13T07:24:54.020Z,72.68
2017-01-13T07:25:54.047Z,72.49
2017-01-13T07:26:54.051Z,72.78
2017-01-13T07:27:54.056Z,72.49
2017-01-13T07:28:54.066Z,72.78
2017-01-13T07:29:54.079Z,72.49
2017-01-13T07:30:54.093Z,72.78
2017-01-13T07:31:54.105Z,72.78
2017-01-13T07:32:54.117Z,72.88
2017-01-13T07:33:54.126Z,72.97
2017-01-13T07:34:54.139Z,72.78
2017-01-13T07:35:54.152Z,72.97
2017-01-13T07:36:54.162Z,72.78
2017-01-13T07:37:54.176Z,72.88
2017-01-13T07:38:54.183Z,72.78
2017-01-13T07:39:54.201Z,72.59
2017-01-13T07:40:54.209Z,72.68
2017-01-13T07:41:54.219Z,72.49
2017-01-13T07:42:54.233Z,72.68
2017-01-13T07:43:54.241Z,72.59
2017-01-13T07:44:54.255Z,72.78
2017-01-13T07:45:54.266Z,72.97
2017-01-13T07:46:54.278Z,72.59
2017-01-13T07:47:54.293Z,73.41
2017-01-13T07:48:54.305Z,72.59
2017-01-13T07:49:54.315Z,72.59
2017-01-13T07:50:54.326Z,73.54
2017-01-13T07:51:54.338Z,72.59
2017-01-13T07:52:54.352Z,72.59
2017-01-13T07:53:54.357Z,72.97
2017-01-13T07:54:54.377Z,72.97
2017-01-13T07:55:54.384Z,72.49
2017-01-13T07:56:54.395Z,72.88
2017-01-13T07:57:54.409Z,72.84
2017-01-13T07:58:54.420Z,73.07
2017-01-13T07:59:54.432Z,73.5
2017-01-13T08:00:54.442Z,73.44
2017-01-13T08:01:54.461Z,72.84
2017-01-13T08:02:54.490Z,72.97
2017-01-13T08:03:54.481Z,73.25
2017-01-13T08:04:54.489Z,72.84
2017-01-13T08:05:54.504Z,73.22
2017-01-13T08:06:54.515Z,72.93
2017-01-13T08:07:54.549Z,73.22
2017-01-13T08:08:54.536Z,72.93
2017-01-13T08:09:54.551Z,73.25
2017-01-13T08:10:54.559Z,73.6
2017-01-13T08:11:54.569Z,73.35
2017-01-13T08:12:54.581Z,73.88
2017-01-13T08:13:54.597Z,73.5
2017-01-13T08:14:54.609Z,73.5
2017-01-13T08:15:54.620Z,73.12
2017-01-13T08:16:54.634Z,73.5
2017-01-13T08:17:54.646Z,73.69
2017-01-13T08:18:54.652Z,73.6
2017-01-13T08:19:54.665Z,73.69
2017-01-13T08:20:54.677Z,73.79
2017-01-13T08:21:54.686Z,73.54
2017-01-13T08:22:54.698Z,73.5
2017-01-13T08:23:54.714Z,73.31
2017-01-13T08:24:54.723Z,73.41
2017-01-13T08:25:54.737Z,73.22
2017-01-13T08:26:54.745Z,73.6
2017-01-13T08:27:54.763Z,73.69
2017-01-13T08:28:54.772Z,73.41
2017-01-13T08:29:54.784Z,73.69
2017-01-13T08:30:54.794Z,73.41
2017-01-13T08:31:54.807Z,73.31
2017-01-13T08:32:54.814Z,73.22
2017-01-13T08:33:54.825Z,73.5
2017-01-13T08:34:54.837Z,73.31
2017-01-13T08:35:54.853Z,73.41
2017-01-13T08:36:54.864Z,73.41
2017-01-13T08:37:54.876Z,73.41
2017-01-13T08:38:54.886Z,73.6
2017-01-13T08:39:54.897Z,74.16
2017-01-13T08:40:54.907Z,73.88
2017-01-13T08:41:54.920Z,74.45
2017-01-13T08:42:54.930Z,74.45
2017-01-13T08:43:54.944Z,74.45
2017-01-13T08:44:54.954Z,74.16
2017-01-13T08:45:54.971Z,73.97
2017-01-13T08:46:54.986Z,73.79
2017-01-13T08:47:54.995Z,73.79
2017-01-13T08:48:55.003Z,73.97
2017-01-13T08:49:55.016Z,74.07
2017-01-13T08:50:55.026Z,73.97
2017-01-13T08:51:55.039Z,73.88
2017-01-13T08:52:55.046Z,74.26
2017-01-13T08:53:55.065Z,74.07
2017-01-13T08:54:55.071Z,74.16
2017-01-13T08:55:55.080Z,74.07
2017-01-13T08:56:55.092Z,73.88
2017-01-13T08:57:55.108Z,73.97
2017-01-13T08:58:55.115Z,73.79
2017-01-13T08:59:55.130Z,73.79
2017-01-13T09:00:55.143Z,73.88
2017-01-13T09:01:55.151Z,74.07
2017-01-13T09:02:55.161Z,74.26
2017-01-13T09:03:55.174Z,74.07
2017-01-13T09:04:55.187Z,73.88
2017-01-13T09:05:55.309Z,74.07
2017-01-13T09:06:55.209Z,74.07
2017-01-13T09:07:55.220Z,73.88
2017-01-13T09:08:55.231Z,73.88
2017-01-13T09:09:55.247Z,73.88
2017-01-13T09:10:55.256Z,73.88
2017-01-13T09:11:55.267Z,73.88
2017-01-13T09:12:55.283Z,73.88
2017-01-13T09:13:55.290Z,73.97
2017-01-13T09:14:55.300Z,73.97
2017-01-13T09:15:55.316Z,73.69
2017-01-13T09:16:55.325Z,73.31
2017-01-13T09:17:55.335Z,73.22
2017-01-13T09:18:55.351Z,73.41
2017-01-13T09:19:55.367Z,73.41
2017-01-13T09:20:55.368Z,73.31
2017-01-13T09:21:55.380Z,73.22
2017-01-13T09:22:55.400Z,73.31
2017-01-13T09:23:55.408Z,73.41
2017-01-13T09:24:55.414Z,73.41
2017-01-13T09:25:55.428Z,74.07
2017-01-13T09:26:55.467Z,74.07
2017-01-13T09:27:55.448Z,73.69
2017-01-13T09:28:55.460Z,73.69
2017-01-13T09:29:55.470Z,73.41
2017-01-13T09:30:55.482Z,73.41
2017-01-13T09:31:55.498Z,73.5
2017-01-13T09:32:55.504Z,73.41
2017-01-13T09:33:55.519Z,73.69
2017-01-13T09:34:55.531Z,73.41
2017-01-13T09:35:55.537Z,73.22
2017-01-13T09:36:55.552Z,73.12
2017-01-13T09:37:55.561Z,72.74
2017-01-13T09:38:55.573Z,73.22
2017-01-13T09:39:55.591Z,73.41
2017-01-13T09:40:55.598Z,73.41
2017-01-13T09:41:55.611Z,73.6
2017-01-13T09:42:55.618Z,73.97
2017-01-13T09:43:55.636Z,73.97
2017-01-13T09:44:55.645Z,74.54
2017-01-13T09:45:55.651Z,74.16
2017-01-13T09:46:55.663Z,73.79
2017-01-13T09:47:55.679Z,73.88
2017-01-13T09:48:55.689Z,73.6
2017-01-13T09:49:55.702Z,72.84
2017-01-13T09:50:55.709Z,73.12
2017-01-13T09:51:55.720Z,73.12
2017-01-13T09:52:55.733Z,73.03
2017-01-13T09:53:55.745Z,73.22
2017-01-13T09:54:55.759Z,72.64
2017-01-13T09:55:55.770Z,73.22
2017-01-13T09:56:55.779Z,73.5
2017-01-13T09:57:55.790Z,73.12
2017-01-13T09:58:55.801Z,73.31
2017-01-13T09:59:55.813Z,73.5
2017-01-13T10:00:55.838Z,73.41
2017-01-13T10:01:55.861Z,72.64
2017-01-13T10:02:55.856Z,72.55
2017-01-13T10:03:55.860Z,72.64
2017-01-13T10:04:55.871Z,72.74
2017-01-13T10:05:55.882Z,73.5
2017-01-13T10:06:55.896Z,72.93
2017-01-13T10:07:55.906Z,73.5
2017-01-13T10:08:55.915Z,72.64
2017-01-13T10:09:55.930Z,73.41
2017-01-13T10:10:55.939Z,73.41
2017-01-13T10:11:55.951Z,73.12
2017-01-13T10:12:55.962Z,72.84
2017-01-13T10:13:55.975Z,73.22
2017-01-13T10:14:55.991Z,73.41
2017-01-13T10:15:55.995Z,73.41
2017-01-13T10:16:56.008Z,73.22
2017-01-13T10:17:56.019Z,73.6
2017-01-13T10:18:56.030Z,73.41
2017-01-13T10:19:56.043Z,73.41
2017-01-13T10:20:56.055Z,73.6
2017-01-13T10:21:56.072Z,73.22
2017-01-13T10:22:56.075Z,73.6
2017-01-13T10:23:56.086Z,73.5
2017-01-13T10:24:56.098Z,73.31
2017-01-13T10:25:56.110Z,73.41
2017-01-13T10:26:56.117Z,73.22
2017-01-13T10:27:56.133Z,73.22
2017-01-13T10:28:56.147Z,73.31
2017-01-13T10:29:56.155Z,73.41
2017-01-13T10:30:56.165Z,73.5
2017-01-13T10:31:56.202Z,73.5
2017-01-13T10:32:56.187Z,73.69
2017-01-13T10:33:56.198Z,74.07
2017-01-13T10:34:56.209Z,74.35
2017-01-13T10:35:56.228Z,74.07
2017-01-13T10:36:56.244Z,73.79
2017-01-13T10:37:56.640Z,74.07
2017-01-13T10:38:56.259Z,74.26
2017-01-13T10:39:56.268Z,73.97
2017-01-13T10:40:56.279Z,74.16
2017-01-13T10:41:56.288Z,74.16
2017-01-13T10:42:56.309Z,74.16
2017-01-13T10:43:56.313Z,74.07
2017-01-13T10:44:56.325Z,73.88
2017-01-13T10:45:56.335Z,73.6
2017-01-13T10:46:56.356Z,73.79
2017-01-13T10:47:56.366Z,73.6
2017-01-13T10:48:56.368Z,73.69
2017-01-13T10:49:56.381Z,73.79
2017-01-13T10:50:56.392Z,73.79
2017-01-13T10:51:56.408Z,74.16
2017-01-13T10:52:56.414Z,73.79
2017-01-13T10:53:56.423Z,73.79
2017-01-13T10:54:56.438Z,73.88
2017-01-13T10:55:56.447Z,73.79
2017-01-13T10:56:56.462Z,73.97
2017-01-13T10:57:56.472Z,73.97
2017-01-13T10:58:56.483Z,74.16
2017-01-13T10:59:56.496Z,74.26
2017-01-13T11:00:56.508Z,74.16
2017-01-13T11:01:56.519Z,74.35
2017-01-13T11:02:56.532Z,74.07
2017-01-13T11:03:56.538Z,73.97
2017-01-13T11:04:56.554Z,74.07
2017-01-13T11:05:56.562Z,74.07
2017-01-13T11:06:56.569Z,74.54
2017-01-13T11:07:56.582Z,73.97
2017-01-13T11:08:56.594Z,74.45
2017-01-13T11:09:56.603Z,74.73
2017-01-13T11:10:56.616Z,74.73
2017-01-13T11:11:56.626Z,74.54
2017-01-13T11:12:56.638Z,74.64
2017-01-13T11:13:56.652Z,74.64
2017-01-13T11:14:56.662Z,74.73
2017-01-13T11:15:56.685Z,74.54
2017-01-13T11:16:56.685Z,74.35
2017-01-13T11:17:56.702Z,74.32
2017-01-13T11:18:56.710Z,74.13
2017-01-13T11:19:56.734Z,74.26
2017-01-13T11:20:56.730Z,74.79
2017-01-13T11:21:56.742Z,74.79
2017-01-13T11:22:56.751Z,74.69
2017-01-13T11:23:56.775Z,74.69
2017-01-13T11:24:56.773Z,74.41
2017-01-13T11:25:56.800Z,74.69
2017-01-13T11:26:56.796Z,74.54
2017-01-13T11:27:56.822Z,74.79
2017-01-13T11:28:56.820Z,74.41
2017-01-13T11:29:56.840Z,74.51
2017-01-13T11:30:56.839Z,74.32
2017-01-13T11:31:56.863Z,74.41
2017-01-13T11:32:56.863Z,74.32
2017-01-13T11:33:56.883Z,74.51
2017-01-13T11:34:56.885Z,74.69
2017-01-13T11:35:56.914Z,74.88
2017-01-13T11:36:56.906Z,75.36
2017-01-13T11:37:56.919Z,75.26
2017-01-13T11:38:56.931Z,75.26
2017-01-13T11:39:56.946Z,75.26
2017-01-13T11:40:56.953Z,75.07
2017-01-13T11:41:56.963Z,74.98
2017-01-13T11:42:56.972Z,75.07
2017-01-13T11:43:56.990Z,75.07
2017-01-13T11:44:56.997Z,74.79
2017-01-13T11:45:57.007Z,75.07
2017-01-13T11:46:57.020Z,75.07
2017-01-13T11:47:57.031Z,74.88
2017-01-13T11:48:57.041Z,75.07
2017-01-13T11:49:57.050Z,75.07
2017-01-13T11:50:57.067Z,74.69
2017-01-13T11:51:57.073Z,74.6
2017-01-13T11:52:57.087Z,74.32
2017-01-13T11:53:57.094Z,74.69
2017-01-13T11:54:57.105Z,74.6
2017-01-13T11:55:57.121Z,74.13
2017-01-13T11:56:57.131Z,74.69
2017-01-13T11:57:57.141Z,75.07
2017-01-13T11:58:57.151Z,75.17
2017-01-13T11:59:57.162Z,75.07
2017-01-13T12:00:57.175Z,74.98
2017-01-13T12:01:57.185Z,75.07
2017-01-13T12:02:57.198Z,74.88
2017-01-13T12:03:57.204Z,74.98
2017-01-13T12:04:57.217Z,74.98
2017-01-13T12:05:57.226Z,74.98
2017-01-13T12:06:57.241Z,75.07
2017-01-13T12:07:57.251Z,74.79
2017-01-13T12:08:57.260Z,75.07
2017-01-13T12:09:57.271Z,75.26
2017-01-13T12:10:57.284Z,75.07
2017-01-13T12:11:57.293Z,75.17
2017-01-13T12:12:57.303Z,75.36
2017-01-13T12:13:57.316Z,75.45
2017-01-13T12:14:57.325Z,75.36
2017-01-13T12:15:57.336Z,75.64
2017-01-13T12:16:57.346Z,75.36
2017-01-13T12:17:57.355Z,75.55
2017-01-13T12:18:57.368Z,75.74
2017-01-13T12:19:57.379Z,75.36
2017-01-13T12:20:57.394Z,75.74
2017-01-13T12:21:57.401Z,75.74
2017-01-13T12:22:57.414Z,75.93
2017-01-13T12:23:57.424Z,75.74
2017-01-13T12:24:57.433Z,75.74
2017-01-13T12:25:57.451Z,76.03
2017-01-13T12:26:57.456Z,75.64
2017-01-13T12:27:57.467Z,75.74
2017-01-13T12:28:57.478Z,75.74
2017-01-13T12:29:57.490Z,76.12
2017-01-13T12:30:57.500Z,76.21
2017-01-13T12:31:57.509Z,76.68
2017-01-13T12:32:57.528Z,76.31
2017-01-13T12:33:57.534Z,76.5
2017-01-13T12:34:57.546Z,76.31
2017-01-13T12:35:57.557Z,76.4
2017-01-13T12:36:57.568Z,76.4
2017-01-13T12:37:57.577Z,76.87
2017-01-13T12:38:57.588Z,76.21
2017-01-13T12:39:57.597Z,76.87
2017-01-13T12:40:57.606Z,76.78
2017-01-13T12:41:57.616Z,76.87
2017-01-13T12:42:57.630Z,77.25
2017-01-13T12:43:57.639Z,77.06
2017-01-13T12:44:57.650Z,76.97
2017-01-13T12:45:57.662Z,76.87
2017-01-13T12:46:57.669Z,76.87
2017-01-13T12:47:57.686Z,76.87
2017-01-13T12:48:57.691Z,76.97
2017-01-13T12:49:57.702Z,76.5
2017-01-13T12:50:57.719Z,76.68
2017-01-13T12:51:57.727Z,77.45
2017-01-13T12:52:57.736Z,76.97
2017-01-13T12:53:57.745Z,77.06
2017-01-13T12:54:57.758Z,76.87
2017-01-13T12:55:57.767Z,77.16
2017-01-13T12:56:57.779Z,76.87